createdAt,value
2018-06-01T00:00:37.364Z,1015.58
2018-06-01T00:01:36.947Z,1015.53
2018-06-01T00:02:36.925Z,1015.55
2018-06-01T00:03:37.793Z,1015.56
2018-06-01T00:04:38.237Z,1015.57
2018-06-01T00:05:36.671Z,1015.58
2018-06-01T00:06:37.892Z,1015.60
2018-06-01T00:07:37.489Z,1015.58
2018-06-01T00:08:58.671Z,1015.57
2018-06-01T00:09:59.242Z,1015.56
2018-06-01T00:10:59.155Z,1015.55
2018-06-01T00:11:58.872Z,1015.58
2018-06-01T00:12:58.806Z,1015.56
2018-06-01T00:13:58.675Z,1015.56
2018-06-01T00:14:59.594Z,1015.58
2018-06-01T00:15:58.301Z,1015.60
2018-06-01T00:16:59.240Z,1015.62
2018-06-01T00:17:58.871Z,1015.66
2018-06-01T00:18:58.512Z,1015.65
2018-06-01T00:19:59.070Z,1015.67
2018-06-01T00:21:42.235Z,1015.67
2018-06-01T00:22:42.934Z,1015.65
2018-06-01T00:23:42.799Z,1015.64
2018-06-01T00:25:04.467Z,1015.67
2018-06-01T00:26:05.219Z,1015.62
2018-06-01T00:27:04.819Z,1015.61
2018-06-01T00:28:05.131Z,1015.64
2018-06-01T00:29:04.652Z,1015.61
2018-06-01T00:30:04.320Z,1015.62
2018-06-01T00:31:27.815Z,1015.58
2018-06-01T00:32:27.767Z,1015.58
2018-06-01T00:33:28.373Z,1015.55
2018-06-01T00:34:28.397Z,1015.57
2018-06-01T00:35:28.074Z,1015.58
2018-06-01T00:36:27.511Z,1015.57
2018-06-01T00:37:28.952Z,1015.57
2018-06-01T00:38:27.590Z,1015.58
2018-06-01T00:39:28.172Z,1015.56
2018-06-01T00:40:27.969Z,1015.60
2018-06-01T00:41:27.421Z,1015.59
2018-06-01T00:42:28.086Z,1015.55
2018-06-01T00:43:27.808Z,1015.57
2018-06-01T00:44:27.505Z,1015.59
2018-06-01T00:45:28.162Z,1015.64
2018-06-01T00:46:27.611Z,1015.57
2018-06-01T00:47:28.173Z,1015.61
2018-06-01T00:48:27.965Z,1015.59
2018-06-01T00:49:27.905Z,1015.58
2018-06-01T00:50:27.431Z,1015.60
2018-06-01T00:51:28.326Z,1015.58
2018-06-01T00:52:28.211Z,1015.55
2018-06-01T00:53:27.892Z,1015.57
2018-06-01T00:54:27.918Z,1015.60
2018-06-01T00:55:27.871Z,1015.57
2018-06-01T00:56:49.299Z,1015.58
2018-06-01T00:57:50.164Z,1015.57
2018-06-01T00:59:11.749Z,1015.58
2018-06-01T01:00:12.578Z,1015.61
2018-06-01T01:01:12.381Z,1015.62
2018-06-01T01:02:12.151Z,1015.59
2018-06-01T01:03:12.572Z,1015.62
2018-06-01T01:04:13.763Z,1015.67
2018-06-01T01:05:13.715Z,1015.63
2018-06-01T01:06:12.215Z,1015.62
2018-06-01T01:07:11.944Z,1015.66
2018-06-01T01:08:12.258Z,1015.67
2018-06-01T01:09:11.999Z,1015.68
2018-06-01T01:10:11.991Z,1015.69
2018-06-01T01:11:12.462Z,1015.69
2018-06-01T01:12:11.884Z,1015.73
2018-06-01T01:13:11.814Z,1015.75
2018-06-01T01:14:11.533Z,1015.71
2018-06-01T01:15:13.575Z,1015.73
2018-06-01T01:16:12.021Z,1015.71
2018-06-01T01:17:11.983Z,1015.67
2018-06-01T01:18:33.562Z,1015.65
2018-06-01T01:19:56.116Z,1015.66
2018-06-01T01:20:57.022Z,1015.65
2018-06-01T01:21:56.934Z,1015.64
2018-06-01T01:22:56.675Z,1015.65
2018-06-01T01:23:56.528Z,1015.63
2018-06-01T01:24:55.966Z,1015.62
2018-06-01T01:25:56.761Z,1015.66
2018-06-01T01:26:56.614Z,1015.64
2018-06-01T01:27:56.499Z,1015.66
2018-06-01T01:28:55.981Z,1015.64
2018-06-01T01:29:56.683Z,1015.65
2018-06-01T01:30:56.338Z,1015.64
2018-06-01T01:31:56.012Z,1015.66
2018-06-01T01:32:57.127Z,1015.68
2018-06-01T01:33:57.188Z,1015.66
2018-06-01T01:34:56.808Z,1015.69
2018-06-01T01:35:56.297Z,1015.70
2018-06-01T01:36:56.678Z,1015.70
2018-06-01T01:37:56.036Z,1015.71
2018-06-01T01:38:56.792Z,1015.67
2018-06-01T01:39:56.671Z,1015.68
2018-06-01T01:40:56.218Z,1015.66
2018-06-01T01:41:56.233Z,1015.71
2018-06-01T01:42:56.052Z,1015.72
2018-06-01T01:43:56.690Z,1015.71
2018-06-01T01:44:56.469Z,1015.69
2018-06-01T01:45:56.454Z,1015.72
2018-06-01T01:46:55.882Z,1015.72
2018-06-01T01:47:56.879Z,1015.76
2018-06-01T01:48:56.479Z,1015.76
2018-06-01T01:49:56.051Z,1015.82
2018-06-01T01:50:56.793Z,1015.84
2018-06-01T01:51:56.833Z,1015.88
2018-06-01T01:52:56.773Z,1015.89
2018-06-01T01:53:56.745Z,1015.88
2018-06-01T01:54:56.475Z,1015.88
2018-06-01T01:55:56.456Z,1015.83
2018-06-01T01:56:56.937Z,1015.82
2018-06-01T01:57:56.410Z,1015.76
2018-06-01T01:58:56.065Z,1015.75
2018-06-01T01:59:56.782Z,1015.72
2018-06-01T02:00:56.451Z,1015.71
2018-06-01T02:01:56.458Z,1015.73
2018-06-01T02:02:56.221Z,1015.76
2018-06-01T02:03:57.018Z,1015.79
2018-06-01T02:04:56.819Z,1015.81
2018-06-01T02:06:18.256Z,1015.83
2018-06-01T02:07:19.228Z,1015.84
2018-06-01T02:08:19.189Z,1015.85
2018-06-01T02:09:18.807Z,1015.87
2018-06-01T02:10:18.557Z,1015.82
2018-06-01T02:11:18.856Z,1015.86
2018-06-01T02:12:18.881Z,1015.84
2018-06-01T02:13:18.335Z,1015.88
2018-06-01T02:15:03.284Z,1015.81
2018-06-01T02:16:03.332Z,1015.77
2018-06-01T02:17:02.896Z,1015.79
2018-06-01T02:18:03.653Z,1015.80
2018-06-01T02:19:03.230Z,1015.78
2018-06-01T02:20:04.055Z,1015.73
2018-06-01T02:21:25.429Z,1015.73
2018-06-01T02:22:26.277Z,1015.68
2018-06-01T02:23:26.125Z,1015.67
2018-06-01T02:24:25.889Z,1015.65
2018-06-01T02:25:25.656Z,1015.62
2018-06-01T02:26:25.356Z,1015.60
2018-06-01T02:27:26.288Z,1015.58
2018-06-01T02:28:26.231Z,1015.59
2018-06-01T02:29:26.027Z,1015.62
2018-06-01T02:30:25.826Z,1015.58
2018-06-01T02:31:25.561Z,1015.60
2018-06-01T02:32:25.342Z,1015.59
2018-06-01T03:53:38.100Z,1015.35
2018-06-01T03:54:38.914Z,1015.35
2018-06-01T03:55:38.665Z,1015.32
2018-06-01T03:57:01.529Z,1015.32
2018-06-01T03:58:01.675Z,1015.31
2018-06-01T03:59:01.495Z,1015.29
2018-06-01T04:00:01.593Z,1015.27
2018-06-01T04:01:01.622Z,1015.29
2018-06-01T04:02:01.492Z,1015.33
2018-06-01T04:03:01.694Z,1015.25
2018-06-01T04:04:01.287Z,1015.25
2018-06-01T04:05:01.488Z,1015.28
2018-06-01T04:06:01.331Z,1015.27
2018-06-01T04:07:02.417Z,1015.26
2018-06-01T04:08:01.571Z,1015.29
2018-06-01T04:09:01.465Z,1015.30
2018-06-01T04:10:14.757Z,1015.30
2018-06-01T04:11:02.065Z,1015.27
2018-06-01T04:12:01.663Z,1015.25
2018-06-01T04:13:01.303Z,1015.27
2018-06-01T04:14:02.082Z,1015.26
2018-06-01T04:15:02.375Z,1015.24
2018-06-01T04:16:01.259Z,1015.28
2018-06-01T04:17:02.350Z,1015.28
2018-06-01T04:18:02.211Z,1015.26
2018-06-01T04:19:02.253Z,1015.28
2018-06-01T04:20:02.200Z,1015.28
2018-06-01T04:21:02.098Z,1015.28
2018-06-01T04:22:02.207Z,1015.30
2018-06-01T04:23:02.211Z,1015.28
2018-06-01T04:24:02.362Z,1015.29
2018-06-01T04:25:02.206Z,1015.29
2018-06-01T04:26:02.204Z,1015.29
2018-06-01T04:27:02.467Z,1015.31
2018-06-01T04:28:01.374Z,1015.27
2018-06-01T04:29:23.215Z,1015.26
2018-06-01T04:30:23.167Z,1015.32
2018-06-01T04:31:24.179Z,1015.28
2018-06-01T04:32:22.957Z,1015.26
2018-06-01T04:33:23.737Z,1015.25
2018-06-01T04:34:23.694Z,1015.25
2018-06-01T04:35:23.594Z,1015.23
2018-06-01T04:36:23.667Z,1015.23
2018-06-01T04:37:23.713Z,1015.24
2018-06-01T04:38:23.781Z,1015.18
2018-06-01T04:39:23.997Z,1015.18
2018-06-01T04:40:24.217Z,1015.18
2018-06-01T04:41:23.265Z,1015.23
2018-06-01T04:42:24.459Z,1015.20
2018-06-01T04:43:23.445Z,1015.20
2018-06-01T04:44:23.549Z,1015.22
2018-06-01T04:45:23.556Z,1015.21
2018-06-01T04:46:23.742Z,1015.18
2018-06-01T04:47:23.916Z,1015.21
2018-06-01T04:48:23.891Z,1015.22
2018-06-01T04:49:23.891Z,1015.21
2018-06-01T04:50:24.769Z,1015.20
2018-06-01T04:51:24.015Z,1015.19
2018-06-01T04:52:24.189Z,1015.17
2018-06-01T04:53:24.199Z,1015.18
2018-06-01T04:54:23.729Z,1015.23
2018-06-01T04:55:24.485Z,1015.21
2018-06-01T04:56:23.708Z,1015.23
2018-06-01T04:57:28.198Z,1015.26
2018-06-01T04:58:23.464Z,1015.27
2018-06-01T04:59:24.232Z,1015.28
2018-06-01T05:00:23.417Z,1015.28
2018-06-01T05:01:24.527Z,1015.34
2018-06-01T05:02:24.126Z,1015.33
2018-06-01T05:03:26.658Z,1015.34
2018-06-01T05:04:26.016Z,1015.35
2018-06-01T05:05:23.486Z,1015.35
2018-06-01T05:06:23.456Z,1015.36
2018-06-01T05:07:23.460Z,1015.38
2018-06-01T05:08:24.395Z,1015.39
2018-06-01T05:09:23.734Z,1015.37
2018-06-01T05:10:25.530Z,1015.37
2018-06-01T05:11:57.045Z,1015.40
2018-06-01T05:12:58.352Z,1015.43
2018-06-01T05:13:58.005Z,1015.44
2018-06-01T05:14:58.129Z,1015.47
2018-06-01T05:15:57.421Z,1015.47
2018-06-01T05:16:57.304Z,1015.53
2018-06-01T05:17:57.881Z,1015.50
2018-06-01T05:18:57.885Z,1015.49
2018-06-01T05:19:57.748Z,1015.54
2018-06-01T05:20:57.525Z,1015.51
2018-06-01T05:21:57.541Z,1015.51
2018-06-01T05:22:57.602Z,1015.53
2018-06-01T05:23:57.571Z,1015.54
2018-06-01T05:24:57.447Z,1015.52
2018-06-01T05:25:57.781Z,1015.54
2018-06-01T05:26:57.693Z,1015.54
2018-06-01T05:27:58.638Z,1015.57
2018-06-01T05:28:59.208Z,1015.57
2018-06-01T05:30:20.415Z,1015.63
2018-06-01T05:31:25.337Z,1015.62
2018-06-01T05:32:20.410Z,1015.49
2018-06-01T05:33:20.724Z,1015.66
2018-06-01T05:34:21.032Z,1015.74
2018-06-01T05:35:20.770Z,1015.69
2018-06-01T05:36:43.023Z,1015.73
2018-06-01T05:37:43.124Z,1015.71
2018-06-01T05:38:42.923Z,1015.73
2018-06-01T05:39:42.643Z,1015.73
2018-06-01T05:40:42.566Z,1015.73
2018-06-01T05:41:43.278Z,1015.77
2018-06-01T05:43:26.975Z,1015.62
2018-06-01T05:44:27.910Z,1015.80
2018-06-01T05:45:27.102Z,1015.79
2018-06-01T05:46:26.946Z,1015.79
2018-06-01T05:47:26.863Z,1015.80
2018-06-01T05:48:29.004Z,1015.80
2018-06-01T05:49:27.901Z,1015.80
2018-06-01T05:50:27.236Z,1015.78
2018-06-01T05:51:27.314Z,1015.75
2018-06-01T05:52:26.397Z,1015.70
2018-06-01T05:53:26.736Z,1015.68
2018-06-01T05:54:49.150Z,1015.67
2018-06-01T05:56:02.220Z,1015.64
2018-06-01T05:57:25.946Z,1015.60
2018-06-01T05:58:26.330Z,1015.60
2018-06-01T05:59:26.567Z,1015.59
2018-06-01T06:00:26.757Z,1015.55
2018-06-01T06:01:26.438Z,1015.52
2018-06-01T06:02:26.676Z,1015.51
2018-06-01T06:03:26.740Z,1015.54
2018-06-01T06:04:25.976Z,1015.59
2018-06-01T06:05:25.807Z,1015.59
2018-06-01T06:06:25.777Z,1015.57
2018-06-01T06:07:26.667Z,1015.56
2018-06-01T06:08:26.711Z,1015.58
2018-06-01T06:09:25.714Z,1015.50
2018-06-01T06:10:26.406Z,1015.51
2018-06-01T06:11:26.058Z,1015.48
2018-06-01T06:12:26.152Z,1015.47
2018-06-01T06:13:26.230Z,1015.46
2018-06-01T06:14:28.687Z,1015.48
2018-06-01T06:15:26.608Z,1015.49
2018-06-01T06:16:47.812Z,1015.52
2018-06-01T06:17:48.504Z,1015.48
2018-06-01T06:18:48.339Z,1015.50
2018-06-01T06:19:48.330Z,1015.53
2018-06-01T06:20:48.930Z,1015.55
2018-06-01T06:21:47.737Z,1015.56
2018-06-01T06:22:48.774Z,1015.58
2018-06-01T06:23:48.563Z,1015.55
2018-06-01T06:24:49.225Z,1015.55
2018-06-01T06:26:31.379Z,1015.54
2018-06-01T06:27:31.276Z,1015.53
2018-06-01T06:28:32.298Z,1015.56
2018-06-01T06:29:53.032Z,1015.55
2018-06-01T06:30:55.328Z,1015.57
2018-06-01T06:31:53.504Z,1015.53
2018-06-01T06:32:53.175Z,1015.56
2018-06-01T06:33:53.854Z,1015.59
2018-06-01T06:35:18.620Z,1015.56
2018-06-01T06:36:40.304Z,1015.55
2018-06-01T06:37:41.399Z,1015.55
2018-06-01T06:38:40.456Z,1015.53
2018-06-01T06:39:40.816Z,1015.55
2018-06-01T06:40:41.450Z,1015.53
2018-06-01T06:42:04.261Z,1015.52
2018-06-01T06:43:25.823Z,1015.50
2018-06-01T06:44:26.678Z,1015.50
2018-06-01T06:45:26.714Z,1015.53
2018-06-01T06:46:26.078Z,1015.47
2018-06-01T06:47:48.277Z,1015.46
2018-06-01T06:48:47.996Z,1015.47
2018-06-01T06:50:11.226Z,1015.42
2018-06-01T06:51:11.006Z,1015.42
2018-06-01T06:52:33.798Z,1015.38
2018-06-01T06:54:16.173Z,1015.39
2018-06-01T06:55:16.754Z,1015.37
2018-06-01T06:56:40.356Z,1015.36
2018-06-01T06:57:41.017Z,1015.37
2018-06-01T06:58:41.239Z,1015.38
2018-06-01T06:59:41.265Z,1015.38
2018-06-01T07:00:40.331Z,1015.40
2018-06-01T07:01:41.158Z,1015.41
2018-06-01T07:02:40.765Z,1015.43
2018-06-01T07:03:41.115Z,1015.41
2018-06-01T07:04:41.057Z,1015.39
2018-06-01T07:05:41.491Z,1015.40
2018-06-01T07:06:41.152Z,1015.38
2018-06-01T07:07:41.153Z,1015.40
2018-06-01T07:08:39.974Z,1015.40
2018-06-01T07:10:02.296Z,1015.36
2018-06-01T07:11:03.203Z,1015.35
2018-06-01T07:12:02.950Z,1015.30
2018-06-01T07:13:04.256Z,1015.30
2018-06-01T07:14:02.930Z,1015.31
2018-06-01T07:15:04.334Z,1015.30
2018-06-01T07:16:03.498Z,1015.30
2018-06-01T07:17:04.680Z,1015.33
2018-06-01T07:18:03.320Z,1015.33
2018-06-01T07:19:31.407Z,1015.32
2018-06-01T07:20:49.110Z,1015.37
2018-06-01T07:22:11.602Z,1015.37
2018-06-01T07:23:15.497Z,1015.37
2018-06-01T07:24:34.422Z,1015.39
2018-06-01T07:25:35.348Z,1015.41
2018-06-01T07:26:34.721Z,1015.44
2018-06-01T07:27:35.655Z,1015.43
2018-06-01T07:28:57.101Z,1015.41
2018-06-01T07:29:58.177Z,1015.44
2018-06-01T07:30:57.345Z,1015.45
2018-06-01T07:31:57.707Z,1015.44
2018-06-01T07:32:58.083Z,1015.41
2018-06-01T07:33:58.565Z,1015.41
2018-06-01T07:34:57.563Z,1015.44
2018-06-01T07:35:57.512Z,1015.44
2018-06-01T07:36:57.399Z,1015.42
2018-06-01T07:37:58.397Z,1015.39
2018-06-01T07:38:57.371Z,1015.36
2018-06-01T07:39:57.282Z,1015.40
2018-06-01T07:40:57.516Z,1015.36
2018-06-01T07:41:57.671Z,1015.34
2018-06-01T07:43:20.181Z,1015.36
2018-06-01T07:44:20.179Z,1015.42
2018-06-01T07:45:20.957Z,1015.37
2018-06-01T07:46:19.716Z,1015.38
2018-06-01T07:47:19.578Z,1015.36
2018-06-01T07:48:40.665Z,1015.38
2018-06-01T07:49:42.166Z,1015.40
2018-06-01T07:50:41.229Z,1015.38
2018-06-01T07:51:41.523Z,1015.42
2018-06-01T07:52:41.372Z,1015.40
2018-06-01T07:54:02.752Z,1015.43
2018-06-01T07:55:03.867Z,1015.49
2018-06-01T07:56:03.637Z,1015.53
2018-06-01T07:57:03.701Z,1015.52
2018-06-01T07:58:27.475Z,1015.54
2018-06-01T07:59:27.449Z,1015.54
2018-06-01T08:00:27.976Z,1015.52
2018-06-01T08:02:14.157Z,1015.44
2018-06-01T08:03:15.223Z,1015.42
2018-06-01T08:04:14.248Z,1015.44
2018-06-01T08:05:14.469Z,1015.42
2018-06-01T08:06:14.151Z,1015.46
2018-06-01T08:07:15.082Z,1015.45
2018-06-01T08:08:15.883Z,1015.44
2018-06-01T08:09:15.450Z,1015.41
2018-06-01T08:10:14.506Z,1015.41
2018-06-01T08:11:36.125Z,1015.44
2018-06-01T08:12:36.373Z,1015.43
2018-06-01T08:13:36.373Z,1015.48
2018-06-01T08:14:36.353Z,1015.48
2018-06-01T08:15:36.461Z,1015.53
2018-06-01T08:16:36.776Z,1015.53
2018-06-01T08:17:37.000Z,1015.58
2018-06-01T08:18:58.169Z,1015.61
2018-06-01T08:19:58.269Z,1015.64
2018-06-01T08:20:58.427Z,1015.66
2018-06-01T08:21:58.725Z,1015.74
2018-06-01T08:22:58.694Z,1015.70
2018-06-01T08:23:58.662Z,1015.75
2018-06-01T08:24:58.337Z,1015.75
2018-06-01T08:25:58.165Z,1015.78
2018-06-01T08:26:58.536Z,1015.85
2018-06-01T08:27:58.518Z,1015.82
2018-06-01T08:28:58.437Z,1015.84
2018-06-01T08:29:58.619Z,1015.88
2018-06-01T08:30:58.751Z,1015.90
2018-06-01T08:31:58.732Z,1015.90
2018-06-01T08:32:58.843Z,1015.86
2018-06-01T08:33:57.918Z,1015.92
2018-06-01T08:34:58.637Z,1015.85
2018-06-01T08:35:58.329Z,1015.85
2018-06-01T08:36:59.338Z,1015.87
2018-06-01T08:37:58.305Z,1015.84
2018-06-01T08:38:58.332Z,1015.85
2018-06-01T08:39:58.127Z,1015.86
2018-06-01T08:41:21.645Z,1015.91
2018-06-01T08:42:23.345Z,1015.90
2018-06-01T08:43:22.328Z,1015.87
2018-06-01T08:44:44.118Z,1015.86
2018-06-01T08:46:05.806Z,1015.87
2018-06-01T08:47:06.823Z,1015.81
2018-06-01T08:48:05.907Z,1015.78
2018-06-01T08:49:06.316Z,1015.70
2018-06-01T08:50:06.029Z,1015.71
2018-06-01T08:51:05.896Z,1015.74
2018-06-01T08:52:28.404Z,1015.74
2018-06-01T08:53:29.257Z,1015.73
2018-06-01T08:54:51.370Z,1015.73
2018-06-01T08:55:52.449Z,1015.72
2018-06-01T08:56:52.518Z,1015.73
2018-06-01T08:57:51.426Z,1015.75
2018-06-01T08:59:14.034Z,1015.68
2018-06-01T09:00:15.135Z,1015.72
2018-06-01T09:01:15.101Z,1015.70
2018-06-01T09:02:14.143Z,1015.75
2018-06-01T09:03:14.893Z,1015.69
2018-06-01T09:04:14.894Z,1015.74
2018-06-01T09:05:14.709Z,1015.75
2018-06-01T09:06:36.557Z,1015.76
2018-06-01T09:07:57.971Z,1015.72
2018-06-01T09:08:59.585Z,1015.79
2018-06-01T09:09:58.348Z,1015.84
2018-06-01T09:10:58.355Z,1015.80
2018-06-01T09:11:58.374Z,1015.75
2018-06-01T09:12:58.660Z,1015.77
2018-06-01T09:13:58.937Z,1015.84
2018-06-01T09:15:00.172Z,1015.83
2018-06-01T09:15:58.081Z,1015.87
2018-06-01T09:16:57.921Z,1015.94
2018-06-01T09:17:59.876Z,1015.93
2018-06-01T09:19:01.065Z,1015.95
2018-06-01T09:20:44.176Z,1015.95
2018-06-01T09:21:45.432Z,1016.01
2018-06-01T09:22:44.294Z,1016.02
2018-06-01T09:24:06.022Z,1016.07
2018-06-01T09:25:06.975Z,1016.07
2018-06-01T09:26:06.027Z,1016.07
2018-06-01T09:27:05.861Z,1016.08
2018-06-01T09:28:07.156Z,1016.05
2018-06-01T09:29:06.294Z,1016.04
2018-06-01T09:30:06.493Z,1016.05
2018-06-01T09:31:07.094Z,1016.05
2018-06-01T09:32:05.999Z,1016.07
2018-06-01T09:33:30.172Z,1016.12
2018-06-01T09:34:31.094Z,1016.07
2018-06-01T09:35:30.995Z,1016.04
2018-06-01T09:36:31.601Z,1016.06
2018-06-01T09:37:30.659Z,1016.07
2018-06-01T09:38:30.413Z,1016.01
2018-06-01T09:39:30.557Z,1016.03
2018-06-01T09:40:30.309Z,1016.03
2018-06-01T09:41:31.269Z,1016.04
2018-06-01T09:42:52.711Z,1016.03
2018-06-01T09:43:53.747Z,1016.02
2018-06-01T09:45:15.373Z,1016.04
2018-06-01T09:46:16.429Z,1015.99
2018-06-01T09:47:38.110Z,1016.00
2018-06-01T09:48:39.109Z,1015.96
2018-06-01T09:50:02.733Z,1016.00
2018-06-01T09:51:27.552Z,1016.00
2018-06-01T09:52:27.703Z,1015.98
2018-06-01T09:53:27.451Z,1015.99
2018-06-01T09:54:27.765Z,1015.98
2018-06-01T09:55:28.146Z,1015.94
2018-06-01T09:56:27.380Z,1015.97
2018-06-01T09:57:51.421Z,1015.93
2018-06-01T09:59:14.586Z,1015.99
2018-06-01T10:00:14.411Z,1015.97
2018-06-01T10:01:15.438Z,1015.97
2018-06-01T10:02:37.627Z,1015.91
2018-06-01T10:03:37.542Z,1015.94
2018-06-01T10:05:44.539Z,1015.90
2018-06-01T10:06:45.662Z,1015.89
2018-06-01T10:07:44.759Z,1015.89
2018-06-01T10:08:45.959Z,1015.86
2018-06-01T10:09:45.013Z,1015.81
2018-06-01T10:10:45.017Z,1015.86
2018-06-01T10:11:45.104Z,1015.86
2018-06-01T10:12:56.019Z,1015.87
2018-06-01T10:13:45.036Z,1015.78
2018-06-01T10:14:45.227Z,1015.74
2018-06-01T10:15:45.370Z,1015.67
2018-06-01T10:16:45.392Z,1015.69
2018-06-01T10:18:29.143Z,1015.70
2018-06-01T10:19:29.119Z,1015.73
2018-06-01T10:20:30.355Z,1015.74
2018-06-01T10:21:30.124Z,1015.76
2018-06-01T10:22:29.598Z,1015.71
2018-06-01T10:23:30.083Z,1015.69
2018-06-01T10:24:29.731Z,1015.62
2018-06-01T10:25:29.865Z,1015.59
2018-06-01T10:26:29.716Z,1015.59
2018-06-01T10:27:29.464Z,1015.63
2018-06-01T10:28:52.339Z,1015.58
2018-06-01T10:29:51.901Z,1015.58
2018-06-01T10:30:52.493Z,1015.53
2018-06-01T10:31:52.030Z,1015.55
2018-06-01T10:33:18.175Z,1015.54
2018-06-01T10:34:20.672Z,1015.52
2018-06-01T10:35:20.580Z,1015.52
2018-06-01T10:36:17.512Z,1015.56
2018-06-01T10:37:17.625Z,1015.55
2018-06-01T10:38:18.787Z,1015.52
2018-06-01T10:39:18.013Z,1015.50
2018-06-01T10:40:16.933Z,1015.49
2018-06-01T10:41:18.023Z,1015.43
2018-06-01T10:42:17.044Z,1015.46
2018-06-01T10:43:17.325Z,1015.38
2018-06-01T10:44:17.563Z,1015.40
2018-06-01T10:45:19.113Z,1015.41
2018-06-01T10:46:17.161Z,1015.46
2018-06-01T10:47:17.287Z,1015.47
2018-06-01T10:48:19.534Z,1015.50
2018-06-01T10:49:17.544Z,1015.51
2018-06-01T10:50:18.664Z,1015.51
2018-06-01T10:51:17.683Z,1015.56
2018-06-01T10:52:17.934Z,1015.52
2018-06-01T10:53:17.927Z,1015.49
2018-06-01T10:54:19.345Z,1015.49
2018-06-01T10:55:17.940Z,1015.46
2018-06-01T10:57:04.020Z,1015.48
2018-06-01T10:58:05.023Z,1015.48
2018-06-01T10:59:04.617Z,1015.46
2018-06-01T11:00:04.493Z,1015.53
2018-06-01T11:01:04.846Z,1015.49
2018-06-01T11:02:05.051Z,1015.47
2018-06-01T11:03:27.971Z,1015.46
2018-06-01T11:04:28.039Z,1015.46
2018-06-01T11:05:28.660Z,1015.40
2018-06-01T11:07:16.828Z,1015.45
2018-06-01T11:08:18.615Z,1015.49
2018-06-01T11:09:17.588Z,1015.43
2018-06-01T11:10:17.666Z,1015.49
2018-06-01T11:11:17.669Z,1015.46
2018-06-01T11:12:17.555Z,1015.49
2018-06-01T11:13:17.760Z,1015.49
2018-06-01T11:14:17.738Z,1015.53
2018-06-01T11:15:16.949Z,1015.57
2018-06-01T11:16:17.056Z,1015.61
2018-06-01T11:17:17.197Z,1015.62
2018-06-01T11:18:17.998Z,1015.60
2018-06-01T11:19:17.729Z,1015.65
2018-06-01T11:20:16.943Z,1015.71
2018-06-01T11:21:17.139Z,1015.72
2018-06-01T11:22:17.406Z,1015.62
2018-06-01T11:23:17.626Z,1015.73
2018-06-01T11:24:19.240Z,1015.74
2018-06-01T11:26:02.723Z,1015.75
2018-06-01T11:27:03.654Z,1015.79
2018-06-01T11:28:02.442Z,1015.79
2018-06-01T11:29:03.507Z,1015.79
2018-06-01T11:30:02.394Z,1015.78
2018-06-01T11:31:03.211Z,1015.81
2018-06-01T11:32:04.405Z,1015.85
2018-06-01T11:33:05.328Z,1015.90
2018-06-01T11:34:03.440Z,1015.93
2018-06-01T11:35:03.359Z,1015.93
2018-06-01T11:36:03.192Z,1015.90
2018-06-01T11:37:02.933Z,1015.96
2018-06-01T11:38:27.180Z,1015.95
2018-06-01T11:39:27.332Z,1016.00
2018-06-01T11:40:27.211Z,1016.00
2018-06-01T11:41:27.039Z,1016.04
2018-06-01T11:42:27.395Z,1016.02
2018-06-01T11:43:49.156Z,1016.06
2018-06-01T11:44:50.081Z,1016.11
2018-06-01T11:45:49.845Z,1016.12
2018-06-01T11:46:50.196Z,1016.15
2018-06-01T11:47:50.068Z,1016.19
2018-06-01T11:48:49.828Z,1016.18
2018-06-01T11:49:49.642Z,1016.22
2018-06-01T11:50:50.601Z,1016.17
2018-06-01T11:52:11.774Z,1016.16
2018-06-01T11:53:12.235Z,1016.13
2018-06-01T11:54:12.335Z,1016.12
2018-06-01T11:55:12.432Z,1016.14
2018-06-01T11:56:35.642Z,1016.02
2018-06-01T11:57:34.667Z,1016.03
2018-06-01T11:58:58.937Z,1016.00
2018-06-01T11:59:59.177Z,1015.97
2018-06-01T12:01:00.085Z,1016.00
2018-06-01T12:02:01.291Z,1016.00
2018-06-01T12:03:00.379Z,1016.04
2018-06-01T12:03:59.152Z,1016.12
2018-06-01T12:04:59.088Z,1016.14
2018-06-01T12:06:22.908Z,1016.17
2018-06-01T12:07:23.903Z,1016.19
2018-06-01T12:08:24.237Z,1016.16
2018-06-01T12:09:23.601Z,1016.15
2018-06-01T12:10:49.150Z,1016.13
2018-06-01T12:11:48.057Z,1016.10
2018-06-01T12:12:48.922Z,1016.11
2018-06-01T12:13:48.749Z,1016.10
2018-06-01T12:14:49.221Z,1016.11
2018-06-01T12:15:48.377Z,1016.07
2018-06-01T12:16:49.965Z,1016.00
2018-06-01T12:17:48.095Z,1015.97
2018-06-01T12:18:48.519Z,1015.91
2018-06-01T12:19:48.576Z,1015.92
2018-06-01T12:20:48.652Z,1015.89
2018-06-01T12:22:12.849Z,1015.88
2018-06-01T12:23:36.002Z,1015.86
2018-06-01T12:24:36.927Z,1015.87
2018-06-01T12:25:36.257Z,1015.86
2018-06-01T12:26:36.449Z,1015.87
2018-06-01T12:27:35.620Z,1015.88
2018-06-01T12:28:41.423Z,1015.87
2018-06-01T12:29:35.660Z,1015.89
2018-06-01T12:30:36.464Z,1015.86
2018-06-01T12:31:36.086Z,1015.87
2018-06-01T12:32:36.188Z,1015.86
2018-06-01T12:33:36.745Z,1015.89
2018-06-01T12:34:36.480Z,1015.86
2018-06-01T12:35:35.540Z,1015.89
2018-06-01T12:36:35.669Z,1015.89
2018-06-01T12:38:00.792Z,1015.95
2018-06-01T12:38:59.280Z,1015.99
2018-06-01T12:39:58.165Z,1015.97
2018-06-01T12:40:58.348Z,1016.03
2018-06-01T12:41:58.332Z,1016.03
2018-06-01T12:42:58.250Z,1016.11
2018-06-01T12:43:58.184Z,1016.10
2018-06-01T12:44:59.227Z,1016.14
2018-06-01T12:45:58.297Z,1016.16
2018-06-01T12:46:59.322Z,1016.16
2018-06-01T12:47:58.384Z,1016.14
2018-06-01T12:48:58.427Z,1016.08
2018-06-01T12:49:58.571Z,1016.06
2018-06-01T12:51:01.402Z,1016.05
2018-06-01T12:51:59.132Z,1016.06
2018-06-01T12:53:42.047Z,1015.97
2018-06-01T12:55:04.470Z,1015.94
2018-06-01T12:56:05.995Z,1015.90
2018-06-01T12:57:04.421Z,1015.93
2018-06-01T12:58:05.042Z,1015.96
2018-06-01T13:00:16.189Z,1015.91
2018-06-01T13:02:01.810Z,1015.86
2018-06-01T13:03:38.742Z,1015.79
2018-06-01T13:04:08.227Z,1015.55
2018-06-01T13:05:26.138Z,1015.68
2018-06-01T13:06:25.992Z,1015.64
2018-06-01T13:07:25.952Z,1015.67
2018-06-01T13:08:48.929Z,1015.62
2018-06-01T13:09:48.699Z,1015.47
2018-06-01T13:11:33.248Z,1015.53
2018-06-01T13:12:34.326Z,1015.58
2018-06-01T13:13:34.291Z,1015.51
2018-06-01T13:14:34.536Z,1015.51
2018-06-01T13:15:34.834Z,1015.51
2018-06-01T13:16:33.958Z,1015.50
2018-06-01T13:17:33.753Z,1015.50
2018-06-01T13:18:33.888Z,1015.54
2018-06-01T13:19:55.814Z,1015.55
2018-06-01T13:20:56.339Z,1015.56
2018-06-01T13:21:56.346Z,1015.59
2018-06-01T13:23:20.068Z,1015.62
2018-06-01T13:24:21.175Z,1015.62
2018-06-01T13:25:22.451Z,1015.69
2018-06-01T13:26:20.702Z,1015.69
2018-06-01T13:27:21.688Z,1015.76
2018-06-01T13:28:20.402Z,1015.76
2018-06-01T13:29:44.159Z,1015.78
2018-06-01T13:30:45.130Z,1015.78
2018-06-01T13:31:45.744Z,1015.82
2018-06-01T13:32:44.731Z,1015.82
2018-06-01T13:33:44.483Z,1015.87
2018-06-01T13:34:45.219Z,1015.88
2018-06-01T13:35:46.107Z,1015.91
2018-06-01T13:36:45.304Z,1015.92
2018-06-01T13:37:45.068Z,1015.90
2018-06-01T13:38:45.506Z,1015.86
2018-06-01T13:39:44.535Z,1015.89
2018-06-01T13:40:46.180Z,1015.85
2018-06-01T13:41:45.241Z,1015.87
2018-06-01T13:42:48.169Z,1015.92
2018-06-01T13:43:45.943Z,1015.93
2018-06-01T13:44:45.090Z,1015.96
2018-06-01T13:46:07.958Z,1015.91
2018-06-01T13:47:06.907Z,1015.95
2018-06-01T13:48:07.255Z,1015.94
2018-06-01T13:49:06.881Z,1015.93
2018-06-01T13:50:07.247Z,1015.95
2018-06-01T13:51:31.952Z,1015.95
2018-06-01T13:52:31.818Z,1015.99
2018-06-01T13:53:32.162Z,1015.92
2018-06-01T13:54:33.432Z,1015.94
2018-06-01T13:55:35.014Z,1015.90
2018-06-01T13:56:31.713Z,1015.90
2018-06-01T13:57:31.518Z,1015.85
2018-06-01T13:58:53.505Z,1015.79
2018-06-01T13:59:54.583Z,1015.70
2018-06-01T14:00:59.623Z,1015.73
2018-06-01T14:01:53.527Z,1015.70
2018-06-01T14:02:55.459Z,1015.70
2018-06-01T14:03:54.800Z,1015.67
2018-06-01T14:04:54.518Z,1015.67
2018-06-01T14:06:17.278Z,1015.66
2018-06-01T14:07:17.602Z,1015.60
2018-06-01T14:08:18.256Z,1015.62
2018-06-01T14:09:17.272Z,1015.58